Time;durP1;ratioP1;P1;durP2;ratioP2;P2;SDS_P1;SDS_P2;PMS_P1;PMS_P2;Temp;Humidity;BMP_temperature;BMP_pressure;BME280_temperature;BME280_humidity;BME280_pressure;Samples;Min_cycle;Max_cycle;Signal;HPM_P1;HPM_P2
2023/02/05 00:00:25;;;;;;;11.05;4.07;;;4.00;99.90;;;;;;4902570;29;20048;-77
2023/02/05 00:02:52;;;;;;;8.85;3.90;;;4.00;99.90;;;;;;4909384;29;20706;-76
2023/02/05 00:05:18;;;;;;;10.88;5.13;;;4.00;99.90;;;;;;4907478;29;20420;-78
2023/02/05 00:07:45;;;;;;;10.43;5.18;;;4.00;99.90;;;;;;4906370;29;20053;-77
2023/02/05 00:10:12;;;;;;;8.68;3.80;;;4.00;99.90;;;;;;4907755;29;20086;-77
2023/02/05 00:12:38;;;;;;;9.52;5.00;;;3.90;99.90;;;;;;4908671;29;20056;-77
2023/02/05 00:15:05;;;;;;;20.08;8.38;;;3.90;99.90;;;;;;4905836;29;20074;-77
2023/02/05 00:17:35;;;;;;;12.15;5.32;;;3.90;99.90;;;;;;4900740;29;20423;-77
2023/02/05 00:20:03;;;;;;;10.30;5.20;;;3.90;99.90;;;;;;4902250;29;20131;-77
2023/02/05 00:22:30;;;;;;;11.57;5.82;;;3.80;99.90;;;;;;4910926;29;20076;-77
2023/02/05 00:24:57;;;;;;;11.48;6.20;;;3.80;99.90;;;;;;4908969;29;20052;-77
2023/02/05 00:27:23;;;;;;;16.05;5.88;;;3.80;99.90;;;;;;4911392;29;20040;-78
2023/02/05 00:29:50;;;;;;;13.25;4.45;;;3.70;99.90;;;;;;4909499;29;20511;-76
2023/02/05 00:32:17;;;;;;;11.13;4.65;;;3.70;99.90;;;;;;4904989;29;20051;-78
2023/02/05 00:34:43;;;;;;;11.05;4.88;;;3.60;99.90;;;;;;4903510;29;20124;-77
2023/02/05 00:37:10;;;;;;;9.52;4.10;;;3.60;99.90;;;;;;4905725;29;20052;-78
2023/02/05 00:39:37;;;;;;;12.93;4.47;;;3.60;99.90;;;;;;4908484;29;20080;-77
2023/02/05 00:42:03;;;;;;;9.38;3.90;;;3.60;99.90;;;;;;4903390;29;20048;-76
2023/02/05 00:44:30;;;;;;;10.07;4.10;;;3.60;99.90;;;;;;4913543;29;20080;-77
2023/02/05 00:46:57;;;;;;;14.30;3.97;;;3.60;99.90;;;;;;4923494;29;20088;-77
2023/02/05 00:49:23;;;;;;;7.65;3.88;;;3.50;99.90;;;;;;4925353;29;20071;-77
2023/02/05 00:51:50;;;;;;;8.10;3.75;;;3.50;99.90;;;;;;4925781;29;20112;-77
2023/02/05 00:54:17;;;;;;;7.68;3.65;;;3.50;99.90;;;;;;4916233;29;20048;-77
2023/02/05 00:56:43;;;;;;;9.43;3.88;;;3.50;99.90;;;;;;4907626;29;20049;-77
2023/02/05 00:59:10;;;;;;;5.65;2.95;;;3.40;99.90;;;;;;4898172;29;20495;-78
2023/02/05 01:01:37;;;;;;;5.70;3.15;;;3.40;99.90;;;;;;4901210;29;20091;-76
2023/02/05 01:04:03;;;;;;;8.63;3.83;;;3.40;99.90;;;;;;4902315;29;20060;-77
2023/02/05 01:06:30;;;;;;;9.25;4.47;;;3.40;99.90;;;;;;4906813;29;20052;-76
2023/02/05 01:08:57;;;;;;;8.70;4.47;;;3.40;99.90;;;;;;4904572;29;20049;-77
2023/02/05 01:11:24;;;;;;;9.57;4.18;;;3.40;99.90;;;;;;4908054;29;20045;-77
2023/02/05 01:13:50;;;;;;;11.60;4.70;;;3.30;99.90;;;;;;4906099;29;20076;-76
2023/02/05 01:16:17;;;;;;;13.02;4.70;;;3.30;99.90;;;;;;4905416;29;20081;-77
2023/02/05 01:18:44;;;;;;;14.23;5.28;;;3.30;99.90;;;;;;4904613;29;20056;-77
2023/02/05 01:21:11;;;;;;;16.45;7.78;;;3.30;99.90;;;;;;4906659;29;20052;-77
2023/02/05 01:23:37;;;;;;;15.30;8.27;;;3.20;99.90;;;;;;4906353;29;20048;-76
2023/02/05 01:26:05;;;;;;;11.63;6.22;;;3.20;99.90;;;;;;4903239;29;20426;-77
2023/02/05 01:28:31;;;;;;;12.15;3.63;;;3.20;99.90;;;;;;4898486;29;20052;-75
2023/02/05 01:30:58;;;;;;;11.65;3.90;;;3.20;99.90;;;;;;4904822;29;20078;-76
2023/02/05 01:33:25;;;;;;;8.20;3.75;;;3.20;99.90;;;;;;4909114;29;20055;-77
2023/02/05 01:35:52;;;;;;;9.93;4.47;;;3.20;99.90;;;;;;4909479;29;20044;-76
2023/02/05 01:38:18;;;;;;;11.65;4.43;;;3.20;99.90;;;;;;4910398;29;20051;-77
2023/02/05 01:40:45;;;;;;;10.15;4.00;;;3.20;99.90;;;;;;4906501;29;20552;-77
2023/02/05 01:43:16;;;;;;;6.30;3.67;;;3.20;99.90;;;;;;4904072;29;20067;-77
2023/02/05 01:45:50;;;;;;;15.25;5.75;;;3.10;99.90;;;;;;4885908;29;20056;-77
2023/02/05 01:48:22;;;;;;;11.93;4.68;;;3.10;99.90;;;;;;4905454;29;20048;-76
2023/02/05 01:51:03;;;;;;;9.20;3.60;;;3.10;99.90;;;;;;4904675;29;20052;-76
2023/02/05 01:53:34;;;;;;;11.02;4.15;;;3.10;99.90;;;;;;4901356;29;20120;-76
2023/02/05 01:56:13;;;;;;;8.85;4.03;;;3.10;99.90;;;;;;4898588;29;20057;-77
2023/02/05 01:58:48;;;;;;;9.63;3.60;;;3.00;99.90;;;;;;4904745;29;20060;-77
2023/02/05 02:01:15;;;;;;;6.85;3.55;;;3.00;99.90;;;;;;4905419;29;20056;-76
2023/02/05 02:03:42;;;;;;;9.25;3.97;;;3.00;99.90;;;;;;4907111;29;20083;-77
2023/02/05 02:06:09;;;;;;;12.25;4.38;;;3.00;99.90;;;;;;4908044;29;20143;-77
2023/02/05 02:08:36;;;;;;;9.02;3.38;;;3.00;99.90;;;;;;4902332;29;20140;-76
2023/02/05 02:11:05;;;;;;;12.25;3.47;;;3.00;99.90;;;;;;4900559;29;20108;-77
2023/02/05 02:13:33;;;;;;;13.30;4.30;;;2.90;99.90;;;;;;4900768;29;20135;-77
2023/02/05 02:16:01;;;;;;;9.73;4.05;;;3.00;99.90;;;;;;4895079;29;20491;-76
2023/02/05 02:18:29;;;;;;;8.10;3.83;;;2.90;99.90;;;;;;4908324;29;20048;-77
2023/02/05 02:21:08;;;;;;;10.07;3.90;;;2.90;99.90;;;;;;4909296;29;20425;-76
2023/02/05 02:24:13;;;;;;;7.97;3.90;;;2.90;99.90;;;;;;4913576;29;20503;-77
2023/02/05 02:26:56;;;;;;;6.43;3.90;;;2.90;99.90;;;;;;4893993;29;20084;-77
2023/02/05 02:29:27;;;;;;;10.05;3.75;;;2.90;99.90;;;;;;4907028;29;20442;-76
2023/02/05 02:32:12;;;;;;;10.25;3.92;;;2.80;99.90;;;;;;4910287;29;20503;-77
2023/02/05 02:34:47;;;;;;;6.78;4.28;;;2.80;99.90;;;;;;4906201;29;20087;-77
2023/02/05 02:37:33;;;;;;;8.35;4.38;;;2.80;99.90;;;;;;4904479;29;20601;-77
2023/02/05 02:40:12;;;;;;;8.77;4.53;;;2.80;99.90;;;;;;4901923;29;20091;-76
2023/02/05 02:42:46;;;;;;;14.82;4.68;;;2.80;99.90;;;;;;4913102;29;20178;-77
2023/02/05 02:45:14;;;;;;;9.10;4.05;;;2.70;99.90;;;;;;4911318;29;20052;-77
2023/02/05 02:47:47;;;;;;;9.27;3.88;;;2.70;99.90;;;;;;4910722;29;20045;-77
2023/02/05 02:50:31;;;;;;;7.30;3.70;;;2.70;99.90;;;;;;4912280;29;20054;-77
2023/02/05 02:53:13;;;;;;;9.40;3.97;;;2.70;99.90;;;;;;4904457;29;20495;-77
2023/02/05 02:55:42;;;;;;;8.82;3.60;;;2.60;99.90;;;;;;4904520;29;20590;-77
2023/02/05 02:58:16;;;;;;;9.27;4.15;;;2.70;99.90;;;;;;4907445;29;20060;-77
2023/02/05 03:00:45;;;;;;;19.77;7.68;;;2.60;99.90;;;;;;4907902;29;20080;-77
2023/02/05 03:03:16;;;;;;;13.73;5.97;;;2.60;99.90;;;;;;4896938;29;20569;-78
2023/02/05 03:05:46;;;;;;;12.40;4.72;;;2.60;99.90;;;;;;4900753;29;20092;-78
2023/02/05 03:08:21;;;;;;;7.53;4.38;;;2.60;99.90;;;;;;4909392;29;20044;-77
2023/02/05 03:11:00;;;;;;;9.85;4.10;;;2.60;99.90;;;;;;4907448;29;20135;-78
2023/02/05 03:13:27;;;;;;;8.88;3.70;;;2.60;99.90;;;;;;4909219;29;20048;-77
2023/02/05 03:15:54;;;;;;;12.50;3.40;;;2.60;99.90;;;;;;4909636;29;20049;-77
2023/02/05 03:18:21;;;;;;;6.07;3.60;;;2.50;99.90;;;;;;4907121;29;20044;-77
2023/02/05 03:20:55;;;;;;;9.55;3.80;;;2.50;99.90;;;;;;4901920;29;20048;-77
2023/02/05 03:23:24;;;;;;;12.90;4.95;;;2.50;99.90;;;;;;4907102;29;20072;-77
2023/02/05 03:25:51;;;;;;;9.30;4.20;;;2.50;99.90;;;;;;4908672;29;20048;-78
2023/02/05 03:28:18;;;;;;;6.00;3.92;;;2.50;99.90;;;;;;4903741;29;20475;-78
2023/02/05 03:31:13;;;;;;;8.95;3.75;;;2.40;99.90;;;;;;4910515;29;20059;-77
2023/02/05 03:34:02;;;;;;;12.48;4.13;;;2.40;99.90;;;;;;4909510;29;20105;-77
2023/02/05 03:36:40;;;;;;;10.93;4.40;;;2.40;99.90;;;;;;4901805;29;20053;-77
2023/02/05 03:39:14;;;;;;;11.10;4.03;;;2.40;99.90;;;;;;4908007;29;20482;-78
2023/02/05 03:41:56;;;;;;;7.07;3.70;;;2.40;99.90;;;;;;4907519;29;20056;-77
2023/02/05 03:44:47;;;;;;;8.68;4.22;;;2.40;99.90;;;;;;4906044;29;20138;-78
2023/02/05 03:47:51;;;;;;;13.07;4.10;;;2.40;99.90;;;;;;4902328;29;20048;-79
2023/02/05 03:50:38;;;;;;;9.63;3.85;;;2.30;99.90;;;;;;4902198;29;20044;-77
2023/02/05 03:53:39;;;;;;;11.02;4.13;;;2.30;99.90;;;;;;4911178;29;20074;-77
2023/02/05 03:56:14;;;;;;;9.05;3.88;;;2.30;99.90;;;;;;4889814;29;20126;-77
2023/02/05 03:58:46;;;;;;;9.23;3.90;;;2.30;99.90;;;;;;4894787;29;20139;-77
2023/02/05 04:01:14;;;;;;;12.38;4.18;;;2.30;99.90;;;;;;4907516;29;20079;-77
2023/02/05 04:03:41;;;;;;;7.90;3.83;;;2.30;99.90;;;;;;4901990;29;20128;-77
2023/02/05 04:06:07;;;;;;;15.82;4.88;;;2.30;99.90;;;;;;4903193;29;20080;-75
2023/02/05 04:08:34;;;;;;;14.98;5.60;;;2.20;99.90;;;;;;4905687;29;20076;-76
2023/02/05 04:11:01;;;;;;;13.38;4.85;;;2.20;99.90;;;;;;4908335;29;20050;-77
2023/02/05 04:13:27;;;;;;;9.27;4.20;;;2.20;99.90;;;;;;4905558;29;20048;-77
2023/02/05 04:15:54;;;;;;;12.52;4.60;;;2.20;99.90;;;;;;4909105;29;20094;-77
2023/02/05 04:18:21;;;;;;;11.50;5.03;;;2.20;99.90;;;;;;4906652;29;20169;-77
2023/02/05 04:20:48;;;;;;;9.00;3.85;;;2.20;99.90;;;;;;4905073;29;20059;-77
2023/02/05 04:23:14;;;;;;;12.20;4.53;;;2.20;99.90;;;;;;4906061;29;20063;-77
2023/02/05 04:25:41;;;;;;;6.97;4.05;;;2.20;99.90;;;;;;4907511;29;20052;-78
2023/02/05 04:28:10;;;;;;;10.75;3.78;;;2.20;99.90;;;;;;4905552;29;20530;-77
2023/02/05 04:30:38;;;;;;;8.43;3.85;;;2.20;99.90;;;;;;4900712;29;20488;-77
2023/02/05 04:33:05;;;;;;;9.98;4.80;;;2.10;99.90;;;;;;4900249;29;20422;-77
2023/02/05 04:35:32;;;;;;;14.20;4.53;;;2.10;99.90;;;;;;4908149;29;20481;-77
2023/02/05 04:37:59;;;;;;;6.47;3.92;;;2.10;99.90;;;;;;4907738;29;20487;-78
2023/02/05 04:40:26;;;;;;;10.52;4.07;;;2.10;99.90;;;;;;4910544;29;20083;-77
2023/02/05 04:42:52;;;;;;;13.23;4.95;;;2.20;99.90;;;;;;4912444;29;20411;-77
2023/02/05 04:45:19;;;;;;;12.02;4.63;;;2.10;99.90;;;;;;4905141;29;20044;-76
2023/02/05 04:47:46;;;;;;;10.68;5.65;;;2.20;99.90;;;;;;4886157;29;20083;-78
2023/02/05 04:50:13;;;;;;;12.65;5.57;;;2.20;99.90;;;;;;4904744;29;20055;-77
2023/02/05 04:52:40;;;;;;;7.65;4.18;;;2.20;99.90;;;;;;4906606;29;20048;-77
2023/02/05 04:55:06;;;;;;;8.93;4.47;;;2.20;99.90;;;;;;4906212;29;20080;-78
2023/02/05 04:57:33;;;;;;;14.57;5.10;;;2.10;99.90;;;;;;4901059;29;20076;-77
2023/02/05 05:00:00;;;;;;;11.93;5.22;;;2.10;99.90;;;;;;4899006;29;20056;-77
2023/02/05 05:02:26;;;;;;;9.82;5.10;;;2.10;99.90;;;;;;4911348;29;20131;-78
2023/02/05 05:04:53;;;;;;;13.27;5.38;;;2.10;99.90;;;;;;4907760;29;20056;-77
2023/02/05 05:07:20;;;;;;;9.38;4.30;;;2.20;99.90;;;;;;4907539;29;20073;-78
2023/02/05 05:09:46;;;;;;;13.75;5.13;;;2.20;99.90;;;;;;4905675;29;20141;-77
2023/02/05 05:12:13;;;;;;;16.67;5.60;;;2.20;99.90;;;;;;4904981;29;20143;-77
2023/02/05 05:14:40;;;;;;;9.63;5.13;;;2.20;99.90;;;;;;4900415;29;20050;-78
2023/02/05 05:17:07;;;;;;;9.82;4.63;;;2.10;99.90;;;;;;4901509;29;20084;-77
2023/02/05 05:19:33;;;;;;;12.50;4.88;;;2.00;99.90;;;;;;4907221;29;20562;-77
2023/02/05 05:22:00;;;;;;;8.18;4.32;;;2.10;99.90;;;;;;4905621;29;20062;-78
2023/02/05 05:24:27;;;;;;;13.88;5.60;;;2.10;99.90;;;;;;4901352;29;20049;-77
2023/02/05 05:26:53;;;;;;;13.48;6.50;;;2.10;99.90;;;;;;4911543;29;20078;-77
2023/02/05 05:29:20;;;;;;;20.23;8.50;;;2.00;99.90;;;;;;4888665;29;20054;-78
2023/02/05 05:31:47;;;;;;;29.23;8.77;;;1.90;99.90;;;;;;4904352;29;20045;-78
2023/02/05 05:34:14;;;;;;;27.90;10.15;;;2.00;99.90;;;;;;4906200;29;20470;-77
2023/02/05 05:36:42;;;;;;;28.92;10.40;;;2.00;99.90;;;;;;4907296;29;20052;-77
2023/02/05 05:44:40;;;;;;;30.77;11.23;;;2.20;99.90;;;;;;4903842;29;20581;-77
2023/02/05 05:47:07;;;;;;;24.95;10.65;;;2.30;99.90;;;;;;4909174;29;20434;-77
2023/02/05 05:49:34;;;;;;;26.05;10.88;;;2.30;99.90;;;;;;4910268;29;20407;-77
2023/02/05 05:52:01;;;;;;;26.08;11.90;;;2.40;99.90;;;;;;4914104;29;20044;-78
2023/02/05 05:54:27;;;;;;;45.53;11.95;;;2.40;99.90;;;;;;4910930;29;20139;-77
2023/02/05 05:56:54;;;;;;;22.45;10.95;;;2.50;99.90;;;;;;4906703;29;20059;-77
2023/02/05 05:59:20;;;;;;;23.63;12.13;;;2.50;99.90;;;;;;4890410;29;20054;-78
2023/02/05 06:01:47;;;;;;;21.90;11.77;;;2.60;99.90;;;;;;4907213;29;20056;-78
2023/02/05 06:04:14;;;;;;;21.33;10.98;;;2.60;99.90;;;;;;4912056;29;20515;-77
2023/02/05 06:06:41;;;;;;;22.20;11.30;;;2.60;99.90;;;;;;4906764;29;20411;-77
2023/02/05 06:09:08;;;;;;;32.30;11.25;;;2.60;99.90;;;;;;4903959;29;20414;-77
2023/02/05 06:11:34;;;;;;;19.63;10.13;;;2.70;99.90;;;;;;4912237;29;20055;-77
2023/02/05 06:14:01;;;;;;;17.40;10.32;;;2.70;99.90;;;;;;4911043;29;20048;-77
2023/02/05 06:16:28;;;;;;;17.13;10.98;;;2.70;99.90;;;;;;4910109;29;20044;-77
2023/02/05 06:18:55;;;;;;;18.27;11.07;;;2.70;99.90;;;;;;4912246;29;20135;-77
2023/02/05 06:21:22;;;;;;;20.42;12.02;;;2.70;99.90;;;;;;4909036;29;20047;-78
2023/02/05 06:23:49;;;;;;;17.92;9.68;;;2.80;99.90;;;;;;4904391;29;20057;-78
2023/02/05 06:26:15;;;;;;;18.33;10.23;;;2.80;99.90;;;;;;4898984;29;20056;-76
2023/02/05 06:28:42;;;;;;;16.65;10.23;;;2.80;99.90;;;;;;4907834;29;20048;-77
2023/02/05 06:31:09;;;;;;;19.95;9.95;;;2.80;99.90;;;;;;4893431;29;20139;-78
2023/02/05 06:33:35;;;;;;;13.82;9.77;;;2.80;99.90;;;;;;4905996;29;20048;-77
2023/02/05 06:36:02;;;;;;;16.30;8.38;;;2.80;99.90;;;;;;4913949;29;20048;-77
2023/02/05 06:38:29;;;;;;;17.20;9.43;;;2.80;99.90;;;;;;4908479;29;20510;-77
2023/02/05 06:40:56;;;;;;;16.23;8.48;;;2.90;99.90;;;;;;4907064;29;20052;-77
2023/02/05 06:43:22;;;;;;;13.10;8.43;;;2.90;99.90;;;;;;4907756;29;20485;-78
2023/02/05 06:45:49;;;;;;;13.90;7.95;;;2.90;99.90;;;;;;4907971;29;20143;-78
2023/02/05 06:48:17;;;;;;;19.67;8.27;;;2.90;99.90;;;;;;4909510;29;20135;-77
2023/02/05 06:50:43;;;;;;;13.88;8.45;;;2.90;99.90;;;;;;4903527;29;20058;-77
2023/02/05 06:53:10;;;;;;;12.52;7.63;;;3.00;99.90;;;;;;4901560;29;20249;-77
2023/02/05 06:55:37;;;;;;;15.82;8.80;;;3.00;99.90;;;;;;4910686;29;20063;-78
2023/02/05 06:58:06;;;;;;;15.95;8.23;;;3.00;99.90;;;;;;4911845;29;20500;-77
2023/02/05 07:00:34;;;;;;;19.48;8.50;;;3.00;99.90;;;;;;4910760;29;20052;-77
2023/02/05 07:03:00;;;;;;;13.73;7.85;;;3.10;99.90;;;;;;4913686;29;20054;-77
2023/02/05 07:05:27;;;;;;;11.23;6.80;;;3.10;99.90;;;;;;4906591;29;20496;-76
2023/02/05 07:07:54;;;;;;;16.80;9.05;;;3.10;99.90;;;;;;4911447;23;20091;-77
2023/02/05 07:10:20;;;;;;;21.85;10.18;;;3.10;99.90;;;;;;4905903;29;20048;-76
2023/02/05 07:12:47;;;;;;;11.75;8.27;;;3.20;99.90;;;;;;4912192;29;20064;-77
2023/02/05 07:15:14;;;;;;;15.88;9.57;;;3.20;99.90;;;;;;4912822;29;20052;-78
2023/02/05 07:17:41;;;;;;;12.80;7.82;;;3.20;99.90;;;;;;4903234;29;20397;-77
2023/02/05 07:20:08;;;;;;;12.88;7.53;;;3.20;99.90;;;;;;4886908;29;20053;-77
2023/02/05 07:22:35;;;;;;;14.57;7.90;;;3.20;99.90;;;;;;4880924;29;20112;-77
2023/02/05 07:25:01;;;;;;;13.20;7.50;;;3.30;99.90;;;;;;4890676;29;20059;-77
2023/02/05 07:27:30;;;;;;;10.23;7.03;;;3.30;99.90;;;;;;4890117;29;20053;-77
2023/02/05 07:29:57;;;;;;;18.23;8.18;;;3.30;99.90;;;;;;4891446;29;20052;-77
2023/02/05 07:32:23;;;;;;;11.85;7.25;;;3.30;99.90;;;;;;4888093;29;20527;-77
2023/02/05 07:34:50;;;;;;;12.05;7.43;;;3.40;99.90;;;;;;4879390;29;20057;-77
2023/02/05 07:37:16;;;;;;;12.88;8.00;;;3.40;99.90;;;;;;4888750;29;20049;-77
2023/02/05 07:39:46;;;;;;;13.85;7.85;;;3.40;99.90;;;;;;4894652;29;20135;-77
2023/02/05 07:42:12;;;;;;;13.45;7.70;;;3.40;99.90;;;;;;4890572;29;20048;-77
2023/02/05 07:44:39;;;;;;;19.10;8.85;;;3.50;99.90;;;;;;4893785;29;20112;-77
2023/02/05 07:47:06;;;;;;;14.27;8.75;;;3.50;99.90;;;;;;4893386;29;20054;-76
2023/02/05 07:49:32;;;;;;;17.67;8.40;;;3.50;99.90;;;;;;4888306;29;20049;-77
2023/02/05 07:51:59;;;;;;;20.30;9.55;;;3.50;99.90;;;;;;4893111;29;20053;-78
2023/02/05 07:54:26;;;;;;;17.60;9.95;;;3.50;99.90;;;;;;4889434;29;20049;-77
2023/02/05 07:56:54;;;;;;;23.67;12.10;;;3.60;99.90;;;;;;4894647;29;20045;-77
2023/02/05 07:59:20;;;;;;;22.80;12.30;;;3.60;99.90;;;;;;4894200;29;20467;-77
2023/02/05 08:01:47;;;;;;;29.13;13.45;;;3.60;99.90;;;;;;4879035;29;20049;-77
2023/02/05 08:04:14;;;;;;;31.30;14.13;;;3.60;99.90;;;;;;4886108;29;20060;-77
2023/02/05 08:06:41;;;;;;;27.67;13.18;;;3.70;99.90;;;;;;4893234;29;20052;-76
2023/02/05 08:09:10;;;;;;;26.75;13.57;;;3.70;99.90;;;;;;4893936;29;20425;-77
2023/02/05 08:11:37;;;;;;;31.30;14.85;;;3.70;99.90;;;;;;4892047;29;20051;-77
2023/02/05 08:14:03;;;;;;;32.17;13.85;;;3.80;99.90;;;;;;4892221;29;20147;-77
2023/02/05 08:16:30;;;;;;;33.05;15.40;;;3.80;99.90;;;;;;4889993;29;20171;-77
2023/02/05 08:18:57;;;;;;;29.60;13.95;;;3.90;99.90;;;;;;4885135;29;20412;-77
2023/02/05 08:21:23;;;;;;;28.75;14.50;;;3.90;99.90;;;;;;4887366;29;20070;-76
2023/02/05 08:23:50;;;;;;;27.00;13.35;;;3.90;99.90;;;;;;4888961;29;20048;-77
2023/02/05 08:26:18;;;;;;;24.67;11.30;;;3.90;99.90;;;;;;4893311;29;20052;-77
2023/02/05 08:28:44;;;;;;;21.13;10.90;;;4.00;99.90;;;;;;4884518;29;20591;-77
2023/02/05 08:31:14;;;;;;;23.15;10.48;;;4.00;99.90;;;;;;4892377;29;20048;-77
2023/02/05 08:33:40;;;;;;;18.77;9.57;;;4.00;99.90;;;;;;4890701;29;20492;-77
2023/02/05 08:36:09;;;;;;;16.05;7.60;;;4.10;99.90;;;;;;4889929;29;20080;-77
2023/02/05 08:38:36;;;;;;;18.13;8.75;;;4.10;99.90;;;;;;4888190;29;20523;-77
2023/02/05 08:41:11;;;;;;;22.67;10.77;;;4.10;99.90;;;;;;4889930;29;20060;-76
2023/02/05 08:43:39;;;;;;;22.38;9.00;;;4.10;99.90;;;;;;4885917;29;20081;-80
2023/02/05 08:46:06;;;;;;;22.80;8.50;;;4.10;99.90;;;;;;4888666;29;20488;-80
2023/02/05 08:48:33;;;;;;;20.08;11.23;;;4.20;99.90;;;;;;4890172;29;20083;-79
2023/02/05 08:51:00;;;;;;;20.90;9.73;;;4.20;99.90;;;;;;4891563;29;20049;-79
2023/02/05 08:53:26;;;;;;;16.92;10.38;;;4.20;99.90;;;;;;4892736;29;20047;-79
2023/02/05 08:55:58;;;;;;;14.85;9.02;;;4.30;99.90;;;;;;4891838;29;20053;-81
2023/02/05 08:58:26;;;;;;;18.35;9.60;;;4.30;99.90;;;;;;4887437;29;20049;-79
2023/02/05 09:00:59;;;;;;;15.85;9.32;;;4.40;99.90;;;;;;4878385;29;20049;-79
2023/02/05 09:03:26;;;;;;;18.65;8.45;;;4.40;99.90;;;;;;4879573;29;20041;-79
2023/02/05 09:05:53;;;;;;;14.35;8.52;;;4.40;99.90;;;;;;4889966;29;20041;-79
2023/02/05 09:08:19;;;;;;;17.95;8.35;;;4.40;99.90;;;;;;4890522;29;20056;-80
2023/02/05 09:10:46;;;;;;;11.68;5.60;;;4.50;99.90;;;;;;4884623;29;20143;-79
2023/02/05 09:13:13;;;;;;;11.23;5.57;;;4.50;99.90;;;;;;4883569;29;20041;-79
2023/02/05 09:15:44;;;;;;;14.98;6.03;;;4.50;99.90;;;;;;4890724;29;20143;-79
2023/02/05 09:18:14;;;;;;;12.50;5.43;;;4.60;99.90;;;;;;4892519;29;20048;-80
2023/02/05 09:20:46;;;;;;;10.65;4.65;;;4.60;99.90;;;;;;4889397;29;20199;-80
2023/02/05 09:23:16;;;;;;;9.63;4.38;;;4.60;99.90;;;;;;4894256;29;20080;-80
2023/02/05 09:25:42;;;;;;;10.70;4.07;;;4.70;99.90;;;;;;4879077;29;20067;-80
2023/02/05 09:28:11;;;;;;;15.45;6.18;;;4.70;99.90;;;;;;4886411;29;20407;-77
2023/02/05 09:30:41;;;;;;;16.95;6.50;;;4.80;99.90;;;;;;4883245;29;20044;-80
2023/02/05 09:33:09;;;;;;;21.85;9.93;;;4.90;99.90;;;;;;4896784;29;20069;-79
2023/02/05 09:35:36;;;;;;;19.98;12.32;;;4.90;99.90;;;;;;4892371;29;20044;-80
2023/02/05 09:38:04;;;;;;;23.02;9.80;;;5.00;99.90;;;;;;4897648;29;20049;-80
2023/02/05 09:41:01;;;;;;;13.57;7.05;;;5.00;99.90;;;;;;4898785;29;20109;-80
2023/02/05 09:43:40;;;;;;;14.70;7.35;;;5.10;99.90;;;;;;4894610;29;20067;-79
2023/02/05 09:46:24;;;;;;;17.75;6.50;;;5.10;99.90;;;;;;4892139;29;20131;-80
2023/02/05 09:49:13;;;;;;;17.65;7.43;;;5.20;99.90;;;;;;4882952;29;20065;-78
2023/02/05 09:51:44;;;;;;;12.50;6.40;;;5.20;99.90;;;;;;4909571;29;20510;-79
2023/02/05 09:54:24;;;;;;;15.48;5.88;;;5.30;99.90;;;;;;4888935;29;20112;-79
2023/02/05 09:56:55;;;;;;;15.18;6.38;;;5.30;99.90;;;;;;4887089;29;20061;-78
2023/02/05 09:59:25;;;;;;;11.95;6.47;;;5.30;99.90;;;;;;4896108;29;20079;-79
2023/02/05 10:01:55;;;;;;;14.02;6.07;;;5.30;99.90;;;;;;4893673;29;20132;-79
2023/02/05 10:04:22;;;;;;;;;;;5.40;99.90;;;;;;4896900;29;20076;-80
2023/02/05 10:07:13;;;;;;;15.85;6.85;;;5.40;99.90;;;;;;4894814;29;19927;-77
2023/02/05 10:09:58;;;;;;;13.35;6.45;;;5.40;99.90;;;;;;4891338;29;20092;-79
2023/02/05 10:12:52;;;;;;;15.50;7.60;;;5.40;99.90;;;;;;4893783;29;20049;-79
2023/02/05 10:15:47;;;;;;;14.48;7.35;;;5.40;99.90;;;;;;4891247;29;20475;-81
2023/02/05 10:18:42;;;;;;;20.38;7.85;;;5.40;99.90;;;;;;4894479;29;20049;-79
2023/02/05 10:21:24;;;;;;;20.60;9.43;;;5.40;99.90;;;;;;4871326;29;20085;-79
2023/02/05 10:24:13;;;;;;;22.08;9.30;;;5.40;99.90;;;;;;4886004;29;20064;-78
2023/02/05 10:26:50;;;;;;;19.40;7.88;;;5.50;99.90;;;;;;4892816;29;20059;-79
2023/02/05 10:29:51;;;;;;;21.80;7.47;;;5.50;99.90;;;;;;4895495;29;20147;-79
2023/02/05 10:32:34;;;;;;;17.17;7.03;;;5.50;99.90;;;;;;4880839;29;20414;-79
2023/02/05 10:35:43;;;;;;;21.77;7.68;;;5.50;99.90;;;;;;4896349;29;20052;-79
2023/02/05 10:38:23;;;;;;;14.18;6.57;;;5.50;99.90;;;;;;4888208;29;20088;-79
2023/02/05 10:40:59;;;;;;;13.93;6.80;;;5.50;99.90;;;;;;4885237;29;20140;-79
2023/02/05 10:43:29;;;;;;;16.48;8.23;;;5.50;99.90;;;;;;4891159;29;20049;-79
2023/02/05 10:45:57;;;;;;;23.02;12.25;;;5.50;99.90;;;;;;4892392;29;20059;-79
2023/02/05 10:48:42;;;;;;;22.50;11.38;;;5.40;99.90;;;;;;4890351;29;20080;-79
2023/02/05 10:51:13;;;;;;;25.05;13.25;;;5.50;99.90;;;;;;4895682;29;20049;-79
2023/02/05 10:53:41;;;;;;;27.13;10.25;;;5.50;99.90;;;;;;4872392;29;20208;-79
2023/02/05 10:56:13;;;;;;;21.08;10.07;;;5.50;99.90;;;;;;4882175;29;20071;-79
2023/02/05 10:58:53;;;;;;;23.25;9.82;;;5.60;99.90;;;;;;4890781;29;20064;-79
2023/02/05 11:01:28;;;;;;;20.38;8.80;;;5.60;99.90;;;;;;4890837;29;20070;-79
2023/02/05 11:04:04;;;;;;;18.58;8.45;;;5.60;99.90;;;;;;4888434;29;20535;-79
2023/02/05 11:06:36;;;;;;;15.10;7.45;;;5.60;99.90;;;;;;4883299;29;20053;-78
2023/02/05 11:09:23;;;;;;;20.10;8.43;;;5.60;99.90;;;;;;4890310;29;20063;-79
2023/02/05 11:12:05;;;;;;;27.73;9.50;;;5.60;99.90;;;;;;4876379;29;20659;-78
2023/02/05 11:14:36;;;;;;;18.17;8.23;;;5.60;99.90;;;;;;4893147;29;20594;-79
2023/02/05 11:17:33;;;;;;;22.15;9.85;;;5.50;99.90;;;;;;4896010;29;20077;-79
2023/02/05 11:20:20;;;;;;;16.20;8.10;;;5.50;99.90;;;;;;4888106;29;20053;-79
2023/02/05 11:22:46;;;;;;;16.60;8.43;;;5.50;99.90;;;;;;4886851;29;20057;-79
2023/02/05 11:25:14;;;;;;;21.17;9.10;;;5.50;99.90;;;;;;4889449;29;20138;-79
2023/02/05 11:27:58;;;;;;;17.58;7.72;;;5.50;99.90;;;;;;4893142;29;20053;-79
2023/02/05 11:30:31;;;;;;;19.13;7.00;;;5.50;99.90;;;;;;4889682;29;20047;-79
2023/02/05 11:33:30;;;;;;;13.93;7.97;;;5.50;99.90;;;;;;4883264;29;20049;-79
2023/02/05 11:36:03;;;;;;;13.32;6.60;;;5.50;99.90;;;;;;4888213;29;20053;-79
2023/02/05 11:38:32;;;;;;;13.85;6.72;;;5.60;99.90;;;;;;4871931;29;20049;-79
2023/02/05 11:41:03;;;;;;;13.93;6.95;;;5.60;99.90;;;;;;4874078;29;20049;-79
2023/02/05 11:43:36;;;;;;;16.13;7.13;;;5.60;99.90;;;;;;4880695;29;20087;-79
2023/02/05 11:46:08;;;;;;;11.48;6.50;;;5.60;99.90;;;;;;4889017;29;20068;-79
2023/02/05 11:49:01;;;;;;;10.18;5.95;;;5.70;99.90;;;;;;4889071;29;20522;-78
2023/02/05 11:51:33;;;;;;;14.50;6.63;;;5.70;99.90;;;;;;4868834;29;20571;-79
2023/02/05 11:54:04;;;;;;;8.95;5.55;;;5.80;99.90;;;;;;4891358;29;20059;-78
2023/02/05 11:56:31;;;;;;;10.85;4.97;;;5.80;99.90;;;;;;4889392;29;20056;-79
2023/02/05 11:59:17;;;;;;;11.23;5.15;;;5.90;99.90;;;;;;4893484;29;20048;-79
2023/02/05 12:01:44;;;;;;;16.10;6.45;;;5.90;99.90;;;;;;4890193;29;20147;-79
2023/02/05 12:04:11;;;;;;;13.68;6.65;;;6.00;99.90;;;;;;4889447;29;20056;-79
2023/02/05 12:06:52;;;;;;;13.63;6.30;;;6.00;99.90;;;;;;4887440;29;20045;-77
2023/02/05 12:09:24;;;;;;;11.02;4.65;;;6.10;99.90;;;;;;4889809;29;20040;-78
2023/02/05 12:12:10;;;;;;;10.50;4.60;;;6.20;99.90;;;;;;4889463;29;20123;-79
2023/02/05 12:14:49;;;;;;;11.15;4.15;;;6.20;99.90;;;;;;4885893;29;20056;-79
2023/02/05 12:17:24;;;;;;;10.02;4.00;;;6.20;99.90;;;;;;4882350;29;20144;-79
2023/02/05 12:19:58;;;;;;;10.27;4.35;;;6.20;99.90;;;;;;4892611;29;20048;-79
2023/02/05 12:22:35;;;;;;;8.93;3.90;;;6.30;99.90;;;;;;4892523;29;20135;-79
2023/02/05 12:25:20;;;;;;;9.38;4.72;;;6.30;99.90;;;;;;4891341;29;20689;-79
2023/02/05 12:28:06;;;;;;;8.55;4.50;;;6.30;99.90;;;;;;4892226;29;20057;-78
2023/02/05 12:30:45;;;;;;;9.13;5.05;;;6.30;99.90;;;;;;4888399;29;20041;-79
2023/02/05 12:33:57;;;;;;;10.00;5.38;;;6.40;99.90;;;;;;4886350;29;20108;-79
2023/02/05 12:36:51;;;;;;;12.27;6.57;;;6.40;99.90;;;;;;4889328;29;20080;-79
2023/02/05 12:39:20;;;;;;;11.68;6.88;;;6.50;99.90;;;;;;4889285;29;20072;-79
2023/02/05 12:42:10;;;;;;;11.55;6.10;;;6.50;99.90;;;;;;4884720;29;20129;-79
2023/02/05 12:44:56;;;;;;;10.38;5.53;;;6.50;99.90;;;;;;4890915;29;20088;-78
2023/02/05 12:47:33;;;;;;;7.63;4.35;;;6.60;99.90;;;;;;4887063;29;20513;-79
2023/02/05 12:50:18;;;;;;;7.22;4.68;;;6.60;99.90;;;;;;4889703;29;20059;-79
2023/02/05 12:53:12;;;;;;;9.07;4.93;;;6.70;99.90;;;;;;4890166;29;20430;-78
2023/02/05 12:55:45;;;;;;;6.20;4.40;;;6.80;99.90;;;;;;4889486;29;20049;-79
2023/02/05 12:58:14;;;;;;;12.82;5.00;;;6.80;99.90;;;;;;4884785;29;20045;-79
2023/02/05 13:00:50;;;;;;;9.35;4.30;;;6.80;99.90;;;;;;4882006;29;20052;-79
2023/02/05 13:03:36;;;;;;;13.98;6.10;;;6.80;99.90;;;;;;4888378;29;20060;-78
2023/02/05 13:06:20;;;;;;;10.63;5.70;;;6.80;99.90;;;;;;4890857;29;20109;-79
2023/02/05 13:08:54;;;;;;;18.50;6.63;;;6.70;99.90;;;;;;4893611;29;20140;-79
2023/02/05 13:11:27;;;;;;;14.57;6.75;;;6.80;99.90;;;;;;4890817;29;20040;-79
2023/02/05 13:14:13;;;;;;;13.85;7.75;;;6.80;99.90;;;;;;4885995;29;20495;-79
2023/02/05 13:16:45;;;;;;;14.13;7.88;;;6.80;99.90;;;;;;4888406;29;20053;-79